Home > Products > Valid Products > TAF

000
FTUS43 KDTX 302109 AAB
TAFDET
TAF AMD
KDET 302109Z 3021/0118 13005KT P6SM SCT035 OVC060
      TEMPO 3021/3024 36013G20KT 2SM TSRA OVC025CB
     FM010300 30004KT P6SM BKN025
     FM010700 30006KT 5SM BR OVC007=



000
FTUS43 KDTX 302103 AAA
TAFFNT
TAF AMD
KFNT 302103Z 3021/0118 03005KT P6SM SCT025 BKN040 OVC080
      TEMPO 3021/3024 3SM SHRA OVC025
     FM010300 30004KT P6SM BKN015
     FM010500 30006KT 5SM BR OVC007=



000
FTUS43 KDTX 302101 AAA
TAFMBS
TAF AMD
KMBS 302101Z 3021/0118 04008KT 6SM -SHRA BKN040 OVC080
      TEMPO 3021/3023 3SM SHRA OVC030
     FM010200 30004KT P6SM OVC007=



000
FTUS43 KDTX 302058 AAB
TAFDTW
TAF AMD
KDTW 302058Z 3021/0124 24008KT P6SM SCT040 OVC080
      TEMPO 3021/3024 30013G20KT 2SM TSRA OVC030CB
     FM010300 27004KT P6SM BKN025
     FM010700 29006KT 5SM BR OVC007
     FM011500 30005KT P6SM BKN015
     FM012100 27005KT P6SM BKN030=



000
FTUS43 KDTX 301950 AAA
TAFDTW
TAF AMD
KDTW 301950Z 3020/0124 22005KT P6SM FEW030 BKN050
      TEMPO 3020/3023 TSRA OVC022CB
     FM010300 27004KT P6SM BKN025
     FM010700 29006KT 5SM BR OVC007
     FM011500 30005KT P6SM BKN015
     FM012100 27005KT P6SM BKN030=



000
FTUS43 KDTX 301950 AAA
TAFDTW
TAF AMD
KDTW 301950Z 3020/0124 22005KT P6SM FEW030 BKN050
      TEMPO 3020/3023 TSRA OVC022CB
     FM010300 27004KT P6SM BKN025
     FM010700 29006KT 5SM BR OVC007
     FM011500 30005KT P6SM BKN015
     FM012100 27005KT P6SM BKN030=



000
FTUS43 KDTX 301948 AAA
TAFDET
TAF AMD
KDET 301948Z 3020/0118 23005KT P6SM BKN035
      TEMPO 3020/3023 TSRA OVC020CB
     FM010300 30004KT P6SM BKN025
     FM010700 30006KT 5SM BR OVC007=



000
FTUS43 KDTX 301948 AAA
TAFDET
TAF AMD
KDET 301948Z 3020/0118 23005KT P6SM BKN035
      TEMPO 3020/3023 TSRA OVC020CB
     FM010300 30004KT P6SM BKN025
     FM010700 30006KT 5SM BR OVC007=



000
FTUS43 KDTX 301720
TAFMBS
TAF
KMBS 301720Z 3018/0118 VRB04KT P6SM SCT025 OVC035
      TEMPO 3019/3022 4SM SHRA OVC022
     FM010200 30004KT P6SM OVC007=



000
FTUS43 KDTX 301720
TAFDET
TAF
KDET 301720Z 3018/0118 23005KT P6SM SCT025 OVC030
      TEMPO 3020/3023 TSRA OVC020CB
     FM010300 30004KT P6SM BKN025
     FM010500 30006KT 5SM BR OVC007=



000
FTUS43 KDTX 301720
TAFFNT
TAF
KFNT 301720Z 3018/0118 25006KT P6SM SCT025 OVC035
      TEMPO 3019/3022 4SM SHRA OVC022
     FM010300 30004KT P6SM BKN015
     FM010500 30006KT 5SM BR OVC007=



000
FTUS43 KDTX 301720
TAFDTW
TAF
KDTW 301720Z 3018/0124 22005KT P6SM SCT025 OVC035
      TEMPO 3020/3023 TSRA OVC022CB
     FM010300 27004KT P6SM BKN025
     FM010500 29006KT 5SM BR OVC007
     FM011500 30005KT P6SM BKN015
     FM012100 27005KT P6SM BKN030=



000
FTUS43 KDTX 301720
TAFFNT
TAF
KFNT 301720Z 3018/0118 25006KT P6SM SCT025 OVC035
      TEMPO 3019/3022 4SM SHRA OVC022
     FM010300 30004KT P6SM BKN015
     FM010500 30006KT 5SM BR OVC007=



000
FTUS43 KDTX 301720
TAFDTW
TAF
KDTW 301720Z 3018/0124 22005KT P6SM SCT025 OVC035
      TEMPO 3020/3023 TSRA OVC022CB
     FM010300 27004KT P6SM BKN025
     FM010500 29006KT 5SM BR OVC007
     FM011500 30005KT P6SM BKN015
     FM012100 27005KT P6SM BKN030=



000
FTUS43 KDTX 301720
TAFDET
TAF
KDET 301720Z 3018/0118 23005KT P6SM SCT025 OVC030
      TEMPO 3020/3023 TSRA OVC020CB
     FM010300 30004KT P6SM BKN025
     FM010500 30006KT 5SM BR OVC007=



000
FTUS43 KDTX 301443 AAB
TAFDTW
TAF AMD
KDTW 301443Z 3015/0118 26004KT P6SM SCT015 OVC025
     FM301600 24007KT P6SM BKN035
      TEMPO 3020/3023 4SM TSRA OVC028CB
     FM010300 28005KT P6SM BKN060
     FM011000 30006KT 5SM BR OVC007
     FM011500 30008KT P6SM OVC015=



000
FTUS43 KDTX 301312 AAA
TAFDTW
TAF AMD
KDTW 301312Z 3013/0118 26004KT 4SM -SHRA BR SCT010 OVC025
     FM301600 24007KT P6SM BKN040
      TEMPO 3020/3023 4SM TSRA OVC028CB
     FM010100 28006KT P6SM BKN060
     FM011000 30006KT 5SM BR OVC007
     FM011500 30008KT P6SM OVC015=



000
FTUS43 KDTX 301120
TAFFNT
TAF
KFNT 301120Z 3012/0112 VRB03KT P6SM OVC024
     FM301500 25006KT P6SM BKN040
      TEMPO 3019/3022 4SM TSRA OVC028CB
     FM010100 28006KT P6SM BKN060
     FM010700 30006KT P6SM OVC007=



000
FTUS43 KDTX 301120
TAFDTW
TAF
KDTW 301120Z 3012/0118 VRB04KT 5SM BR BKN012 OVC025
     FM301400 26005KT P6SM BKN025
     FM301600 24007KT P6SM BKN040
      TEMPO 3020/3023 4SM TSRA OVC028CB
     FM010100 28006KT P6SM BKN060
     FM011000 30006KT 5SM BR OVC007
     FM011500 30008KT P6SM OVC015=



000
FTUS43 KDTX 301120
TAFFNT
TAF
KFNT 301120Z 3012/0112 VRB03KT P6SM OVC024
     FM301500 25006KT P6SM BKN040
      TEMPO 3019/3022 4SM TSRA OVC028CB
     FM010100 28006KT P6SM BKN060
     FM010700 30006KT P6SM OVC007=



000
FTUS43 KDTX 301120
TAFDTW
TAF
KDTW 301120Z 3012/0118 VRB04KT 5SM BR BKN012 OVC025
     FM301400 26005KT P6SM BKN025
     FM301600 24007KT P6SM BKN040
      TEMPO 3020/3023 4SM TSRA OVC028CB
     FM010100 28006KT P6SM BKN060
     FM011000 30006KT 5SM BR OVC007
     FM011500 30008KT P6SM OVC015=



000
FTUS43 KDTX 301120
TAFDET
TAF
KDET 301120Z 3012/0112 VRB04KT 5SM BR BKN012 OVC025
     FM301400 26005KT P6SM BKN025
     FM301600 24007KT P6SM BKN040
      TEMPO 3020/3023 4SM TSRA OVC028CB
     FM010100 28006KT P6SM BKN060
     FM011000 30006KT 5SM BR OVC007=



000
FTUS43 KDTX 301120
TAFDET
TAF
KDET 301120Z 3012/0112 VRB04KT 5SM BR BKN012 OVC025
     FM301400 26005KT P6SM BKN025
     FM301600 24007KT P6SM BKN040
      TEMPO 3020/3023 4SM TSRA OVC028CB
     FM010100 28006KT P6SM BKN060
     FM011000 30006KT 5SM BR OVC007=



000
FTUS43 KDTX 301120
TAFMBS
TAF
KMBS 301120Z 3012/0112 VRB03KT P6SM BKN035
     FM301500 04005KT P6SM BKN040
      TEMPO 3019/3022 4SM TSRA OVC028CB
     FM010100 33006KT P6SM BKN060
     FM010700 30006KT P6SM OVC007=



000
FTUS43 KDTX 301120
TAFMBS
TAF
KMBS 301120Z 3012/0112 VRB03KT P6SM BKN035
     FM301500 04005KT P6SM BKN040
      TEMPO 3019/3022 4SM TSRA OVC028CB
     FM010100 33006KT P6SM BKN060
     FM010700 30006KT P6SM OVC007=



000
FTUS43 KDTX 300908 AAB
TAFDTW
TAF AMD
KDTW 300908Z 3009/0112 VRB04KT P6SM OVC012
      TEMPO 3009/3012 6SM BR BKN008 OVC016
     FM301300 26005KT P6SM BKN024
     FM301600 24007KT P6SM BKN040 PROB30 3020/3023 4SM TSRA OVC028CB
     FM010100 28006KT P6SM BKN060=



000
FTUS43 KDTX 300649 AAA
TAFDTW
TAF AMD
KDTW 300649Z 3007/0112 VRB04KT 2SM -SHRA BR OVC012
     FM300900 VRB03KT 6SM BR BKN008 OVC016
     FM301300 26005KT P6SM BKN024
     FM301600 24007KT P6SM BKN040 PROB30 3020/3023 4SM TSRA OVC028CB
     FM010100 28006KT P6SM BKN060=



000
FTUS43 KDTX 300649 AAA
TAFDTW
TAF AMD
KDTW 300649Z 3007/0112 VRB04KT 2SM -SHRA BR OVC012
     FM300900 VRB03KT 6SM BR BKN008 OVC016
     FM301300 26005KT P6SM BKN024
     FM301600 24007KT P6SM BKN040 PROB30 3020/3023 4SM TSRA OVC028CB
     FM010100 28006KT P6SM BKN060=



000
FTUS43 KDTX 300530
TAFDET
TAF
KDET 300530Z 3006/0106 08004KT 6SM -SHRA BR OVC020
     FM300800 VRB04KT 6SM BR OVC020
     FM300900 VRB03KT 6SM BR BKN008 OVC016
     FM301300 26005KT P6SM BKN024
     FM301600 24007KT P6SM BKN040 PROB30 3020/3023 4SM TSRA OVC028CB
     FM010100 28006KT P6SM BKN060=



000
FTUS43 KDTX 300530
TAFDTW
TAF
KDTW 300530Z 3006/0112 08004KT 6SM -SHRA BR OVC020
     FM300800 VRB04KT 6SM BR OVC020
     FM300900 VRB03KT 6SM BR BKN008 OVC016
     FM301300 26005KT P6SM BKN024
     FM301600 24007KT P6SM BKN040 PROB30 3020/3023 4SM TSRA OVC028CB
     FM010100 28006KT P6SM BKN060=



000
FTUS43 KDTX 300530
TAFMBS
TAF
KMBS 300530Z 3006/0106 VRB04KT P6SM SKC
     FM300700 VRB03KT P6SM BKN035
     FM301500 04005KT P6SM BKN040 PROB30 3019/3022 4SM TSRA OVC028CB
     FM010100 33006KT P6SM BKN060=



000
FTUS43 KDTX 300530
TAFFNT
TAF
KFNT 300530Z 3006/0106 VRB03KT P6SM BKN035
     FM300900 VRB03KT P6SM OVC024
     FM301500 25006KT P6SM BKN040 PROB30 3019/3022 4SM TSRA OVC028CB
     FM010100 28006KT P6SM BKN060=



000
FTUS43 KDTX 300218 AAA
TAFMBS
TAF AMD
KMBS 300218Z 3002/3024 VRB04KT P6SM SKC
     FM300700 VRB03KT P6SM BKN035
     FM301500 04005KT P6SM BKN040 PROB30 3019/3022 4SM TSRA
      OVC028CB=



000
FTUS43 KDTX 300217 AAA
TAFFNT
TAF AMD
KFNT 300217Z 3002/3024 16005KT P6SM SCT050 SCT150
     FM300400 10005KT P6SM BKN035
     FM300900 VRB03KT 6SM BR BKN022
     FM301500 25006KT P6SM BKN040 PROB30 3019/3022 4SM TSRA
      OVC028CB=



000
FTUS43 KDTX 300208 AAA
TAFDET
TAF AMD
KDET 300208Z 3002/3024 10005KT P6SM BKN035 OVC100
     FM300400 03004KT P6SM OVC022
     FM300900 33004KT 4SM BR BKN008 OVC016
     FM301300 26005KT P6SM BKN024
     FM301600 24007KT P6SM BKN040 PROB30 3020/3023 4SM TSRA
      OVC028CB=



000
FTUS43 KDTX 300207 AAB
TAFDTW
TAF AMD
KDTW 300207Z 3002/0106 10005KT P6SM BKN035 OVC100
     FM300400 03004KT P6SM OVC022
     FM300900 33004KT 4SM BR BKN008 OVC016
     FM301300 26005KT P6SM BKN024
     FM301600 24007KT P6SM BKN040 PROB30 3020/3023 4SM TSRA OVC028CB
     FM010100 VRB04KT 6SM BR SCT060=



000
FTUS43 KDTX 300044 AAA
TAFDTW
TAF AMD
KDTW 300044Z 3001/0106 15007KT P6SM BKN035 BKN150
     FM300200 07005KT P6SM BKN035 OVC060
     FM300500 03004KT P6SM BKN018 OVC030
     FM300900 33004KT 4SM BR BKN008 OVC016
     FM301300 26005KT P6SM BKN024
     FM301600 24007KT P6SM BKN040 PROB30 3020/3023 4SM TSRA OVC028CB
     FM010100 VRB04KT 6SM BR SCT060=



000
FTUS43 KDTX 300044 AAA
TAFDTW
TAF AMD
KDTW 300044Z 3001/0106 15007KT P6SM BKN035 BKN150
     FM300200 07005KT P6SM BKN035 OVC060
     FM300500 03004KT P6SM BKN018 OVC030
     FM300900 33004KT 4SM BR BKN008 OVC016
     FM301300 26005KT P6SM BKN024
     FM301600 24007KT P6SM BKN040 PROB30 3020/3023 4SM TSRA OVC028CB
     FM010100 VRB04KT 6SM BR SCT060=



000
FTUS43 KDTX 292321
TAFFNT
TAF
KFNT 292321Z 3000/3024 16008KT P6SM SCT050 SCT150
     FM300400 10005KT P6SM SCT030
     FM300900 VRB03KT 6SM BR BKN022
     FM301500 25006KT P6SM BKN040 PROB30 3019/3022 4SM TSRA
      OVC028CB=



000
FTUS43 KDTX 292321
TAFDTW
TAF
KDTW 292321Z 3000/0106 15008KT P6SM SCT035 BKN150
     FM300200 07005KT P6SM BKN035 OVC060
     FM300500 03004KT P6SM BKN018 OVC030
     FM300900 33004KT 4SM BR BKN008 OVC016
     FM301300 26005KT P6SM BKN024
     FM301600 24007KT P6SM BKN040 PROB30 3020/3023 4SM TSRA OVC028CB
     FM010100 VRB04KT 6SM BR SCT060=



000
FTUS43 KDTX 292321
TAFDET
TAF
KDET 292321Z 3000/3024 15008KT P6SM SCT035 BKN150
     FM300200 07005KT P6SM BKN035 OVC060
     FM300500 03004KT P6SM BKN018 OVC028
     FM300900 33004KT 6SM BR BKN008 OVC016
     FM301300 26005KT P6SM BKN024
     FM301600 24007KT P6SM BKN040 PROB30 3020/3023 4SM TSRA
      OVC028CB=



000
FTUS43 KDTX 292321
TAFMBS
TAF
KMBS 292321Z 3000/3024 17008KT P6SM SCT060 SCT150
     FM300400 VRB04KT P6SM SCT035
     FM300900 VRB03KT 6SM BR SCT030
     FM301500 04005KT P6SM BKN040 PROB30 3019/3022 4SM TSRA
      OVC028CB=



000
FTUS43 KDTX 292033 AAA
TAFDTW
TAF AMD
KDTW 292033Z 2921/3024 16012KT P6SM SCT050 OVC080
      TEMPO 2921/2923 BKN045 OVC060
     FM292300 12007KT P6SM BKN028 OVC050
     FM300300 09006KT 2SM -RA BR BKN012 OVC022
     FM300600 03004KT 5SM BR BKN008 OVC018
     FM301000 35004KT 3SM BR OVC005
     FM301400 26005KT P6SM OVC012
     FM301700 25007KT P6SM BKN030 PROB30 3019/3023 5SM TSRA
      BKN025CB=



000
FTUS43 KDTX 292023 AAA
TAFMBS
TAF AMD
KMBS 292023Z 2920/3018 16008KT P6SM SCT050 BKN120
      TEMPO 2921/2922 3SM TSRA BKN040CB OVC060
     FM300300 15005KT P6SM BKN045 OVC060
     FM300900 07005KT P6SM OVC025
     FM301300 05005KT P6SM OVC015=



000
FTUS43 KDTX 291811 AAA
TAFFNT
TAF AMD
KFNT 291811Z 2918/3018 16008KT P6SM SCT050 OVC120
     FM291830 16008KT P6SM -SHRA OVC050
     FM291930 15008KT P6SM SCT050 OVC120
      TEMPO 2922/3002 BKN045 OVC080
     FM300200 08006KT P6SM BKN040 OVC060
     FM300700 07005KT P6SM OVC015
     FM301200 VRB03KT P6SM OVC010=



000
FTUS43 KDTX 291811 AAA
TAFFNT
TAF AMD
KFNT 291811Z 2918/3018 16008KT P6SM SCT050 OVC120
     FM291830 16008KT P6SM -SHRA OVC050
     FM291930 15008KT P6SM SCT050 OVC120
      TEMPO 2922/3002 BKN045 OVC080
     FM300200 08006KT P6SM BKN040 OVC060
     FM300700 07005KT P6SM OVC015
     FM301200 VRB03KT P6SM OVC010=



000
FTUS43 KDTX 291727
TAFDTW
TAF
KDTW 291727Z 2918/3024 16011KT P6SM SCT050 OVC080
      TEMPO 2921/2923 BKN045 OVC060
     FM292300 12007KT 6SM -RA BKN028 OVC050
     FM300300 09006KT 2SM -RA BR BKN012 OVC022
     FM300600 03004KT 5SM BR BKN008 OVC018
     FM301000 35004KT 3SM BR OVC005
     FM301400 26005KT P6SM OVC012
     FM301700 25007KT P6SM BKN030 PROB30 3019/3023 5SM TSRA
      BKN025CB=



000
FTUS43 KDTX 291727
TAFMBS
TAF
KMBS 291727Z 2918/3018 16008KT P6SM SCT050 BKN120
      TEMPO 3000/3003 BKN045 OVC080
     FM300300 15005KT P6SM BKN045 OVC060
     FM300900 07005KT P6SM OVC025
     FM301300 05005KT P6SM OVC015=



000
FTUS43 KDTX 291727
TAFDET
TAF
KDET 291727Z 2918/3018 16011KT P6SM SCT050 OVC080
      TEMPO 2921/2923 BKN045 OVC060
     FM292300 12007KT 6SM -RA BKN028 OVC050
     FM300300 09006KT 2SM -RA BR BKN012 OVC022
     FM300600 03004KT 5SM BR BKN008 OVC018
     FM301000 35004KT 3SM BR OVC005
     FM301400 26005KT P6SM OVC012
     FM301700 25007KT P6SM BKN030=



000
FTUS43 KDTX 291727
TAFFNT
TAF
KFNT 291727Z 2918/3018 15008KT P6SM SCT050 OVC120
      TEMPO 2922/3002 BKN045 OVC080
     FM300200 08006KT P6SM BKN040 OVC060
     FM300700 07005KT P6SM OVC015
     FM301200 VRB03KT P6SM OVC010=



000
FTUS43 KDTX 291444 AAA
TAFDTW
TAF AMD
KDTW 291444Z 2915/3018 16009KT P6SM FEW040 OVC100
     FM291900 12011KT P6SM SCT050 OVC080
     FM292300 09010KT 6SM -RA BKN028 OVC050
     FM300300 03006KT 2SM -RA BR BKN012 OVC022
     FM300600 33005KT 5SM BR BKN008 OVC018
     FM301000 33005KT 3SM BR OVC005
     FM301400 27006KT P6SM OVC012
     FM301700 25007KT P6SM BKN030=



000
FTUS43 KDTX 291154
TAFDET
TAF
KDET 291154Z 2912/3012 VRB04KT P6SM SCT070 OVC120
     FM291400 16009KT P6SM OVC100
     FM291900 12011KT P6SM SCT050 OVC080
     FM292300 09010KT 6SM -RA BKN028 OVC050
     FM300300 03006KT 2SM -RA BR BKN012 OVC022
     FM300600 33005KT 5SM BR BKN008 OVC018
     FM301000 33005KT 3SM BR OVC005=



000
FTUS43 KDTX 291154
TAFDTW
TAF
KDTW 291154Z 2912/3018 VRB04KT P6SM SCT070 OVC120
     FM291400 16009KT P6SM OVC100
     FM291900 12011KT P6SM SCT050 OVC080
     FM292300 09010KT 6SM -RA BKN028 OVC050
     FM300300 03006KT 2SM -RA BR BKN012 OVC022
     FM300600 33005KT 5SM BR BKN008 OVC018
     FM301000 33005KT 3SM BR OVC005
     FM301400 27006KT P6SM OVC012
     FM301700 25007KT P6SM BKN030=



000
FTUS43 KDTX 291154
TAFFNT
TAF
KFNT 291154Z 2912/3012 VRB04KT P6SM SCT070 BKN200
     FM291400 17008KT P6SM SCT060 BKN150
     FM292000 15008KT P6SM SCT050 OVC120
     FM300200 08006KT P6SM BKN040 OVC060
     FM300700 07005KT P6SM OVC015=



000
FTUS43 KDTX 291154
TAFMBS
TAF
KMBS 291154Z 2912/3012 VRB04KT P6SM SCT080 BKN200
     FM291400 17008KT P6SM SCT060 BKN150
     FM292000 16008KT P6SM SCT050 BKN120
     FM300300 15005KT P6SM BKN045 OVC060
     FM300700 07005KT P6SM OVC025=



000
FTUS43 KDTX 291154
TAFMBS
TAF
KMBS 291154Z 2912/3012 VRB04KT P6SM SCT080 BKN200
     FM291400 17008KT P6SM SCT060 BKN150
     FM292000 16008KT P6SM SCT050 BKN120
     FM300300 15005KT P6SM BKN045 OVC060
     FM300700 07005KT P6SM OVC025=



000
FTUS43 KDTX 291154
TAFDET
TAF
KDET 291154Z 2912/3012 VRB04KT P6SM SCT070 OVC120
     FM291400 16009KT P6SM OVC100
     FM291900 12011KT P6SM SCT050 OVC080
     FM292300 09010KT 6SM -RA BKN028 OVC050
     FM300300 03006KT 2SM -RA BR BKN012 OVC022
     FM300600 33005KT 5SM BR BKN008 OVC018
     FM301000 33005KT 3SM BR OVC005=



000
FTUS43 KDTX 291154
TAFDTW
TAF
KDTW 291154Z 2912/3018 VRB04KT P6SM SCT070 OVC120
     FM291400 16009KT P6SM OVC100
     FM291900 12011KT P6SM SCT050 OVC080
     FM292300 09010KT 6SM -RA BKN028 OVC050
     FM300300 03006KT 2SM -RA BR BKN012 OVC022
     FM300600 33005KT 5SM BR BKN008 OVC018
     FM301000 33005KT 3SM BR OVC005
     FM301400 27006KT P6SM OVC012
     FM301700 25007KT P6SM BKN030=



000
FTUS43 KDTX 291154
TAFFNT
TAF
KFNT 291154Z 2912/3012 VRB04KT P6SM SCT070 BKN200
     FM291400 17008KT P6SM SCT060 BKN150
     FM292000 15008KT P6SM SCT050 OVC120
     FM300200 08006KT P6SM BKN040 OVC060
     FM300700 07005KT P6SM OVC015=



000
FTUS43 KDTX 290842 AAA
TAFDTW
TAF AMD
KDTW 290842Z 2909/3012 VRB04KT P6SM SCT070 SCT120 BKN200
     FM291400 16009KT P6SM OVC100
     FM291900 12011KT P6SM SCT050 OVC080
     FM292300 09010KT 6SM -RA BKN028 OVC050
     FM300300 03006KT 2SM -RA BR BKN012 OVC022
     FM300600 33005KT 5SM BR BKN008 OVC018=



000
FTUS43 KDTX 290527
TAFDET
TAF
KDET 290527Z 2906/3006 VRB04KT P6SM SCT070 SCT120 BKN200
     FM291400 16009KT P6SM OVC100
     FM291900 12011KT P6SM SCT050 OVC080
     FM292300 09010KT 6SM -RA BKN028 OVC050
     FM300300 03006KT 2SM -RA BR BKN012 OVC022=



000
FTUS43 KDTX 290527
TAFDTW
TAF
KDTW 290527Z 2906/3012 VRB04KT P6SM SCT070 SCT120 BKN200
     FM291400 16009KT P6SM OVC100
     FM291900 12011KT P6SM SCT050 OVC080
     FM292300 09010KT 6SM -RA BKN028 OVC050
     FM300300 03006KT 2SM -RA BR BKN012 OVC022
     FM300600 33005KT 5SM BR BKN008 OVC018=



000
FTUS43 KDTX 290527
TAFFNT
TAF
KFNT 290527Z 2906/3006 VRB04KT P6SM SCT070 BKN200
     FM291400 17008KT P6SM SCT060 BKN150
     FM292000 15008KT P6SM SCT050 OVC120
     FM300200 08006KT P6SM BKN040 OVC060=



000
FTUS43 KDTX 290527
TAFMBS
TAF
KMBS 290527Z 2906/3006 VRB04KT P6SM SCT080 BKN200
     FM291400 17008KT P6SM SCT060 BKN150
     FM292000 16008KT P6SM SCT050 BKN120
     FM300300 15005KT P6SM BKN045 OVC060=



000
FTUS43 KDTX 290222 AAA
TAFDTW
TAF AMD
KDTW 290222Z 2902/3006 VRB05KT P6SM FEW060 SCT200
     FM291400 16009KT P6SM OVC100
     FM291700 13008KT 5SM SHRA OVC050
     FM292100 10010KT 5SM SHRA OVC025
     FM300000 08005KT P6SM OVC015=



000
FTUS43 KDTX 282321
TAFDET
TAF
KDET 282321Z 2900/2924 VRB05KT P6SM FEW060 SCT200
     FM291400 16009KT P6SM OVC100
     FM291700 13008KT 5SM SHRA OVC050
     FM292100 10010KT 5SM SHRA OVC025=



000
FTUS43 KDTX 282321
TAFMBS
TAF
KMBS 282321Z 2900/2924 VRB05KT P6SM FEW060 SCT200
     FM291400 18007KT P6SM SCT050 BKN150
     FM291800 16010KT P6SM BKN050=



000
FTUS43 KDTX 282321
TAFDTW
TAF
KDTW 282321Z 2900/3006 VRB05KT P6SM FEW060 SCT200
     FM291400 16009KT P6SM OVC100
     FM291700 13008KT 5SM SHRA OVC050
     FM292100 10010KT 5SM SHRA OVC025
     FM300000 08005KT P6SM OVC015=



000
FTUS43 KDTX 282321
TAFFNT
TAF
KFNT 282321Z 2900/2924 VRB05KT P6SM FEW060 SCT200
     FM291400 15007KT P6SM SCT050 BKN150
     FM291800 13010KT P6SM BKN050=



000
FTUS43 KDTX 282321
TAFDET
TAF
KDET 282321Z 2900/2924 VRB05KT P6SM FEW060 SCT200
     FM291400 16009KT P6SM OVC100
     FM291700 13008KT 5SM SHRA OVC050
     FM292100 10010KT 5SM SHRA OVC025=



000
FTUS43 KDTX 282321
TAFDTW
TAF
KDTW 282321Z 2900/3006 VRB05KT P6SM FEW060 SCT200
     FM291400 16009KT P6SM OVC100
     FM291700 13008KT 5SM SHRA OVC050
     FM292100 10010KT 5SM SHRA OVC025
     FM300000 08005KT P6SM OVC015=



000
FTUS43 KDTX 282321
TAFMBS
TAF
KMBS 282321Z 2900/2924 VRB05KT P6SM FEW060 SCT200
     FM291400 18007KT P6SM SCT050 BKN150
     FM291800 16010KT P6SM BKN050=



000
FTUS43 KDTX 282321
TAFFNT
TAF
KFNT 282321Z 2900/2924 VRB05KT P6SM FEW060 SCT200
     FM291400 15007KT P6SM SCT050 BKN150
     FM291800 13010KT P6SM BKN050=



000
FTUS43 KDTX 282101 AAA
TAFDTW
TAF AMD
KDTW 282101Z 2821/2924 30009KT P6SM SCT060
     FM290100 VRB05KT P6SM FEW060
     FM291400 15006KT P6SM OVC050
     FM291700 15008KT 5SM SHRA OVC030=



000
FTUS43 KDTX 282101 AAA
TAFDTW
TAF AMD
KDTW 282101Z 2821/2924 30009KT P6SM SCT060
     FM290100 VRB05KT P6SM FEW060
     FM291400 15006KT P6SM OVC050
     FM291700 15008KT 5SM SHRA OVC030=



000
FTUS43 KDTX 281742
TAFDET
TAF
KDET 281742Z 2818/2918 34014G22KT P6SM SCT050
      TEMPO 2818/2821 BKN050
     FM282100 32010KT P6SM SCT050
     FM290100 VRB05KT P6SM FEW060
     FM291400 15006KT P6SM OVC050
     FM291700 15008KT 5SM SHRA OVC030=



000
FTUS43 KDTX 281742
TAFFNT
TAF
KFNT 281742Z 2818/2918 36012KT P6SM SCT050
      TEMPO 2818/2822 BKN050
     FM290000 VRB05KT P6SM FEW060
     FM291500 15005KT P6SM BKN050=



000
FTUS43 KDTX 281742
TAFDTW
TAF
KDTW 281742Z 2818/2924 34014G22KT P6SM SCT050
      TEMPO 2818/2821 BKN050
     FM282100 32010KT P6SM SCT050
     FM290100 VRB05KT P6SM FEW060
     FM291400 15006KT P6SM OVC050
     FM291700 15008KT 5SM SHRA OVC030=



000
FTUS43 KDTX 281742
TAFMBS
TAF
KMBS 281742Z 2818/2918 01010KT P6SM SCT050
     FM290100 VRB05KT P6SM FEW060
     FM291500 15005KT P6SM SCT050=



000
FTUS43 KDTX 281406 AAA
TAFDET
TAF AMD
KDET 281406Z 2814/2912 34015G22KT P6SM BKN040
      TEMPO 2814/2818 SCT040
     FM282000 33011KT P6SM SCT050
     FM282300 VRB05KT P6SM SCT060
     FM290700 VRB03KT 6SM BR SKC=



000
FTUS43 KDTX 281406 AAA
TAFDET
TAF AMD
KDET 281406Z 2814/2912 34015G22KT P6SM BKN040
      TEMPO 2814/2818 SCT040
     FM282000 33011KT P6SM SCT050
     FM282300 VRB05KT P6SM SCT060
     FM290700 VRB03KT 6SM BR SKC=



000
FTUS43 KDTX 281404 AAA
TAFDTW
TAF AMD
KDTW 281404Z 2814/2918 33015G22KT P6SM SCT040
      TEMPO 2816/2820 BKN040
     FM282000 32011KT P6SM SCT050
     FM282300 VRB05KT P6SM SCT060
     FM290700 VRB03KT 6SM BR SKC
     FM291600 15008KT P6SM BKN050=



000
FTUS43 KDTX 281404 AAA
TAFDTW
TAF AMD
KDTW 281404Z 2814/2918 33015G22KT P6SM SCT040
      TEMPO 2816/2820 BKN040
     FM282000 32011KT P6SM SCT050
     FM282300 VRB05KT P6SM SCT060
     FM290700 VRB03KT 6SM BR SKC
     FM291600 15008KT P6SM BKN050=



000
FTUS43 KDTX 281342 AAA
TAFFNT
TAF AMD
KFNT 281342Z 2814/2912 35015G22KT P6SM SCT035
      TEMPO 2817/2821 BKN040
     FM290000 VRB05KT P6SM SCT060=



000
FTUS43 KDTX 281120
TAFDET
TAF
KDET 281120Z 2812/2912 35014KT P6SM BKN028 OVC040
     FM281600 35013G20KT P6SM BKN040
     FM281900 35012G17KT P6SM BKN060
     FM290000 VRB05KT P6SM SCT060
     FM290700 VRB03KT 6SM BR SKC=



000
FTUS43 KDTX 281120
TAFMBS
TAF
KMBS 281120Z 2812/2912 36009KT P6SM SKC
     FM281500 01012KT P6SM SCT045
     FM290100 VRB05KT P6SM SCT060=



000
FTUS43 KDTX 281120
TAFDTW
TAF
KDTW 281120Z 2812/2918 33014KT P6SM BKN030 OVC040
     FM281600 33015G22KT P6SM BKN040
     FM281900 34012G17KT P6SM BKN060
     FM290000 VRB05KT P6SM SCT060
     FM290700 VRB03KT 6SM BR SKC
     FM291600 15008KT P6SM BKN050=



000
FTUS43 KDTX 281120
TAFFNT
TAF
KFNT 281120Z 2812/2912 36012KT P6SM SKC
     FM281500 36013KT P6SM BKN040
     FM282000 35009KT P6SM SCT050
     FM290000 VRB05KT P6SM SCT060=



000
FTUS43 KDTX 281120
TAFDTW
TAF
KDTW 281120Z 2812/2918 33014KT P6SM BKN030 OVC040
     FM281600 33015G22KT P6SM BKN040
     FM281900 34012G17KT P6SM BKN060
     FM290000 VRB05KT P6SM SCT060
     FM290700 VRB03KT 6SM BR SKC
     FM291600 15008KT P6SM BKN050=



000
FTUS43 KDTX 281120
TAFDET
TAF
KDET 281120Z 2812/2912 35014KT P6SM BKN028 OVC040
     FM281600 35013G20KT P6SM BKN040
     FM281900 35012G17KT P6SM BKN060
     FM290000 VRB05KT P6SM SCT060
     FM290700 VRB03KT 6SM BR SKC=



000
FTUS43 KDTX 281120
TAFMBS
TAF
KMBS 281120Z 2812/2912 36009KT P6SM SKC
     FM281500 01012KT P6SM SCT045
     FM290100 VRB05KT P6SM SCT060=



000
FTUS43 KDTX 281120
TAFFNT
TAF
KFNT 281120Z 2812/2912 36012KT P6SM SKC
     FM281500 36013KT P6SM BKN040
     FM282000 35009KT P6SM SCT050
     FM290000 VRB05KT P6SM SCT060=



000
FTUS43 KDTX 280850 AAA
TAFDTW
TAF AMD
KDTW 280850Z 2809/2912 34014KT P6SM SCT018 BKN024
     FM281100 34014KT P6SM BKN028 OVC040
     FM281200 34014KT P6SM BKN030 OVC040
     FM281700 32012KT P6SM BKN040
     FM290000 VRB05KT P6SM SCT060=



000
FTUS43 KDTX 280520
TAFDET
TAF
KDET 280520Z 2806/2906 34015G22KT P6SM BKN014 OVC024
      TEMPO 2806/2808 5SM -SHRA BR BKN012
     FM281000 34014KT P6SM BKN028 OVC045
     FM281700 32012KT P6SM BKN040
     FM290000 VRB05KT P6SM SCT060=



000
FTUS43 KDTX 280520
TAFDTW
TAF
KDTW 280520Z 2806/2912 34015G22KT P6SM BKN015 OVC024
      TEMPO 2806/2808 5SM -SHRA BR BKN012
     FM281000 34014KT P6SM BKN028 OVC045
     FM281700 32012KT P6SM BKN040
     FM290000 VRB05KT P6SM SCT060=



000
FTUS43 KDTX 280520
TAFFNT
TAF
KFNT 280520Z 2806/2906 36014G22KT P6SM BKN028 OVC080
     FM281000 34012KT P6SM BKN026 BKN080
     FM281500 33014KT P6SM BKN040
     FM282000 32010KT P6SM SCT045
     FM290000 VRB05KT P6SM SCT060=



000
FTUS43 KDTX 280520
TAFMBS
TAF
KMBS 280520Z 2806/2906 36011KT P6SM SCT040 BKN120
     FM281500 03012KT P6SM SCT045
     FM290000 VRB05KT P6SM SCT100=



000
FTUS43 KDTX 280520
TAFDET
TAF
KDET 280520Z 2806/2906 34015G22KT P6SM BKN014 OVC024
      TEMPO 2806/2808 5SM -SHRA BR BKN012
     FM281000 34014KT P6SM BKN028 OVC045
     FM281700 32012KT P6SM BKN040
     FM290000 VRB05KT P6SM SCT060=



000
FTUS43 KDTX 280520
TAFDTW
TAF
KDTW 280520Z 2806/2912 34015G22KT P6SM BKN015 OVC024
      TEMPO 2806/2808 5SM -SHRA BR BKN012
     FM281000 34014KT P6SM BKN028 OVC045
     FM281700 32012KT P6SM BKN040
     FM290000 VRB05KT P6SM SCT060=



000
FTUS43 KDTX 280216 AAA
TAFDTW
TAF AMD
KDTW 280216Z 2802/2906 36020G31KT 3SM -SHRA SCT008 BKN016 OVC028
      TEMPO 2803/2805 2SM -SHRA SCT006 BKN008 OVC012
     FM280500 35016G24KT P6SM -SHRA SCT012 BKN022 OVC040
     FM281000 34014KT P6SM BKN028 OVC045
     FM281700 32012KT P6SM BKN040
     FM290000 26005KT P6SM SCT060=



000
FTUS43 KDTX 272324
TAFDTW
TAF
KDTW 272324Z 2800/2906 36020G31KT 3SM -SHRA SCT008 BKN016 OVC028
      TEMPO 2801/2805 2SM SHRA SCT006 BKN008 OVC012
     FM280500 35016G24KT P6SM -SHRA SCT012 BKN022 OVC040
     FM281000 34014KT P6SM BKN028 OVC045
     FM281700 32012KT P6SM BKN040
     FM290000 26005KT P6SM SCT060=



000
FTUS43 KDTX 272324
TAFDET
TAF
KDET 272324Z 2800/2824 36018G30KT 3SM -SHRA SCT008 BKN016 OVC028
      TEMPO 2801/2805 2SM SHRA SCT006 BKN008 OVC012
     FM280500 35016G24KT P6SM -SHRA SCT012 BKN022 OVC040
     FM281000 34014KT P6SM BKN028 OVC045
     FM281700 32012KT P6SM BKN040=



000
FTUS43 KDTX 272324
TAFFNT
TAF
KFNT 272324Z 2800/2824 01015G26KT 6SM -SHRA SCT028 BKN060 OVC080
      TEMPO 2800/2803 5SM -SHRA BKN028 OVC060
     FM280300 36014G22KT P6SM BKN040 OVC080
     FM281400 33014KT P6SM BKN035
     FM281900 32010KT P6SM SCT045=



000
FTUS43 KDTX 272324
TAFMBS
TAF
KMBS 272324Z 2800/2824 05014G20KT P6SM SCT060 OVC080
     FM280500 02012KT P6SM SCT060 BKN120
     FM281600 03012KT P6SM SCT045=



000
FTUS43 KDTX 272324
TAFFNT
TAF
KFNT 272324Z 2800/2824 01015G26KT 6SM -SHRA SCT028 BKN060 OVC080
      TEMPO 2800/2803 5SM -SHRA BKN028 OVC060
     FM280300 36014G22KT P6SM BKN040 OVC080
     FM281400 33014KT P6SM BKN035
     FM281900 32010KT P6SM SCT045=



000
FTUS43 KDTX 272324
TAFMBS
TAF
KMBS 272324Z 2800/2824 05014G20KT P6SM SCT060 OVC080
     FM280500 02012KT P6SM SCT060 BKN120
     FM281600 03012KT P6SM SCT045=



000
FTUS43 KDTX 272324
TAFDET
TAF
KDET 272324Z 2800/2824 36018G30KT 3SM -SHRA SCT008 BKN016 OVC028
      TEMPO 2801/2805 2SM SHRA SCT006 BKN008 OVC012
     FM280500 35016G24KT P6SM -SHRA SCT012 BKN022 OVC040
     FM281000 34014KT P6SM BKN028 OVC045
     FM281700 32012KT P6SM BKN040=



000
FTUS43 KDTX 272324
TAFDTW
TAF
KDTW 272324Z 2800/2906 36020G31KT 3SM -SHRA SCT008 BKN016 OVC028
      TEMPO 2801/2805 2SM SHRA SCT006 BKN008 OVC012
     FM280500 35016G24KT P6SM -SHRA SCT012 BKN022 OVC040
     FM281000 34014KT P6SM BKN028 OVC045
     FM281700 32012KT P6SM BKN040
     FM290000 26005KT P6SM SCT060=



    US Dept of Commerce
    National Oceanic and Atmospheric Administration
    National Weather Service
    1325 East West Highway
    Silver Spring, MD 20910
    Page Author: NWS Internet Services Team
Disclaimer
Information Quality
Credits
Glossary
Privacy Policy
Freedom of Information Act (FOIA)
About Us
Career Opportunities